sensor_id;sensor_type;location;lat;lon;timestamp;temperature;humidity
11087;DHT22;5597;47.588;9.642;2022-08-01T00:00:24;19.90;99.90
11087;DHT22;5597;47.588;9.642;2022-08-01T00:02:50;19.90;99.90
11087;DHT22;5597;47.588;9.642;2022-08-01T00:05:16;19.90;99.90
11087;DHT22;5597;47.588;9.642;2022-08-01T00:07:42;19.80;99.90
11087;DHT22;5597;47.588;9.642;2022-08-01T00:10:13;19.80;99.90
11087;DHT22;5597;47.588;9.642;2022-08-01T00:12:39;19.80;99.90
11087;DHT22;5597;47.588;9.642;2022-08-01T00:15:08;19.80;99.90
11087;DHT22;5597;47.588;9.642;2022-08-01T00:17:34;19.70;99.90
11087;DHT22;5597;47.588;9.642;2022-08-01T00:20:00;19.70;99.90
11087;DHT22;5597;47.588;9.642;2022-08-01T00:22:28;19.60;99.90
11087;DHT22;5597;47.588;9.642;2022-08-01T00:24:53;19.50;99.90
11087;DHT22;5597;47.588;9.642;2022-08-01T00:27:19;19.40;99.90
11087;DHT22;5597;47.588;9.642;2022-08-01T00:29:44;19.40;99.90
11087;DHT22;5597;47.588;9.642;2022-08-01T00:32:10;19.30;99.90
11087;DHT22;5597;47.588;9.642;2022-08-01T00:34:35;19.20;99.90
11087;DHT22;5597;47.588;9.642;2022-08-01T00:37:01;19.10;99.90
11087;DHT22;5597;47.588;9.642;2022-08-01T00:39:27;19.10;99.90
11087;DHT22;5597;47.588;9.642;2022-08-01T00:41:52;19.00;99.90
11087;DHT22;5597;47.588;9.642;2022-08-01T00:44:18;19.00;99.90
11087;DHT22;5597;47.588;9.642;2022-08-01T00:46:43;18.90;99.90
11087;DHT22;5597;47.588;9.642;2022-08-01T00:49:09;18.80;99.90
11087;DHT22;5597;47.588;9.642;2022-08-01T00:51:35;18.80;99.90
11087;DHT22;5597;47.588;9.642;2022-08-01T00:54:01;18.70;99.90
11087;DHT22;5597;47.588;9.642;2022-08-01T00:56:27;18.60;99.90
11087;DHT22;5597;47.588;9.642;2022-08-01T00:58:54;18.60;99.90
11087;DHT22;5597;47.588;9.642;2022-08-01T01:01:21;18.60;99.90
11087;DHT22;5597;47.588;9.642;2022-08-01T01:03:49;18.60;99.90
11087;DHT22;5597;47.588;9.642;2022-08-01T01:09:17;18.50;99.90
11087;DHT22;5597;47.588;9.642;2022-08-01T01:16:57;18.40;99.90
11087;DHT22;5597;47.588;9.642;2022-08-01T01:19:29;18.40;99.90
11087;DHT22;5597;47.588;9.642;2022-08-01T01:30:30;18.20;99.90
11087;DHT22;5597;47.588;9.642;2022-08-01T01:32:59;18.20;99.90
11087;DHT22;5597;47.588;9.642;2022-08-01T01:35:29;18.20;99.90
11087;DHT22;5597;47.588;9.642;2022-08-01T01:38:01;18.20;99.90
11087;DHT22;5597;47.588;9.642;2022-08-01T01:40:30;18.10;99.90
11087;DHT22;5597;47.588;9.642;2022-08-01T01:42:56;18.10;99.90
11087;DHT22;5597;47.588;9.642;2022-08-01T01:45:24;18.00;99.90
11087;DHT22;5597;47.588;9.642;2022-08-01T01:47:50;18.00;99.90
11087;DHT22;5597;47.588;9.642;2022-08-01T01:50:21;18.00;99.90
11087;DHT22;5597;47.588;9.642;2022-08-01T01:52:48;18.00;99.90
11087;DHT22;5597;47.588;9.642;2022-08-01T01:55:15;18.00;99.90
11087;DHT22;5597;47.588;9.642;2022-08-01T01:57:43;17.90;99.90
11087;DHT22;5597;47.588;9.642;2022-08-01T02:00:11;17.90;99.90
11087;DHT22;5597;47.588;9.642;2022-08-01T02:02:37;17.90;99.90
11087;DHT22;5597;47.588;9.642;2022-08-01T02:05:05;17.90;99.90
11087;DHT22;5597;47.588;9.642;2022-08-01T02:07:32;17.90;99.90
11087;DHT22;5597;47.588;9.642;2022-08-01T02:10:00;17.90;99.90
11087;DHT22;5597;47.588;9.642;2022-08-01T02:12:27;17.80;99.90
11087;DHT22;5597;47.588;9.642;2022-08-01T02:14:54;17.80;99.90
11087;DHT22;5597;47.588;9.642;2022-08-01T02:17:21;17.80;99.90
11087;DHT22;5597;47.588;9.642;2022-08-01T02:19:47;17.80;99.90
11087;DHT22;5597;47.588;9.642;2022-08-01T02:22:14;17.70;99.90
11087;DHT22;5597;47.588;9.642;2022-08-01T02:25:05;17.70;99.90
11087;DHT22;5597;47.588;9.642;2022-08-01T02:27:42;17.70;99.90
11087;DHT22;5597;47.588;9.642;2022-08-01T02:30:10;17.60;99.90
11087;DHT22;5597;47.588;9.642;2022-08-01T02:32:47;17.60;99.90
11087;DHT22;5597;47.588;9.642;2022-08-01T02:35:21;17.60;99.90
11087;DHT22;5597;47.588;9.642;2022-08-01T02:37:48;17.60;99.90
11087;DHT22;5597;47.588;9.642;2022-08-01T02:40:16;17.60;99.90
11087;DHT22;5597;47.588;9.642;2022-08-01T02:42:47;17.50;99.90
11087;DHT22;5597;47.588;9.642;2022-08-01T02:45:13;17.50;99.90
11087;DHT22;5597;47.588;9.642;2022-08-01T02:47:40;17.50;99.90
11087;DHT22;5597;47.588;9.642;2022-08-01T02:50:10;17.50;99.90
11087;DHT22;5597;47.588;9.642;2022-08-01T02:52:38;17.40;99.90
11087;DHT22;5597;47.588;9.642;2022-08-01T02:55:05;17.40;99.90
11087;DHT22;5597;47.588;9.642;2022-08-01T02:57:32;17.40;99.90
11087;DHT22;5597;47.588;9.642;2022-08-01T03:00:00;17.40;99.90
11087;DHT22;5597;47.588;9.642;2022-08-01T03:02:26;17.40;99.90
11087;DHT22;5597;47.588;9.642;2022-08-01T03:04:53;17.40;99.90
11087;DHT22;5597;47.588;9.642;2022-08-01T03:07:20;17.30;99.90
11087;DHT22;5597;47.588;9.642;2022-08-01T03:09:47;17.30;99.90
11087;DHT22;5597;47.588;9.642;2022-08-01T03:12:30;17.30;99.90
11087;DHT22;5597;47.588;9.642;2022-08-01T03:14:57;17.30;99.90
11087;DHT22;5597;47.588;9.642;2022-08-01T03:17:27;17.30;99.90
11087;DHT22;5597;47.588;9.642;2022-08-01T03:19:54;17.30;99.90
11087;DHT22;5597;47.588;9.642;2022-08-01T03:22:23;17.30;99.90
11087;DHT22;5597;47.588;9.642;2022-08-01T03:24:52;17.30;99.90
11087;DHT22;5597;47.588;9.642;2022-08-01T03:27:19;17.20;99.90
11087;DHT22;5597;47.588;9.642;2022-08-01T03:29:47;17.20;99.90
11087;DHT22;5597;47.588;9.642;2022-08-01T03:32:13;17.20;99.90
11087;DHT22;5597;47.588;9.642;2022-08-01T03:34:40;17.20;99.90
11087;DHT22;5597;47.588;9.642;2022-08-01T03:39:52;17.20;99.90
11087;DHT22;5597;47.588;9.642;2022-08-01T03:42:24;17.20;99.90
11087;DHT22;5597;47.588;9.642;2022-08-01T03:44:56;17.10;99.90
11087;DHT22;5597;47.588;9.642;2022-08-01T03:47:25;17.10;99.90
11087;DHT22;5597;47.588;9.642;2022-08-01T03:49:55;17.20;99.90
11087;DHT22;5597;47.588;9.642;2022-08-01T03:52:22;17.20;99.90
11087;DHT22;5597;47.588;9.642;2022-08-01T03:54:52;17.10;99.90
11087;DHT22;5597;47.588;9.642;2022-08-01T03:57:20;17.10;99.90
11087;DHT22;5597;47.588;9.642;2022-08-01T03:59:47;17.10;99.90
11087;DHT22;5597;47.588;9.642;2022-08-01T04:02:14;17.10;99.90
11087;DHT22;5597;47.588;9.642;2022-08-01T04:04:40;17.10;99.90
11087;DHT22;5597;47.588;9.642;2022-08-01T04:07:21;17.10;99.90
11087;DHT22;5597;47.588;9.642;2022-08-01T04:09:47;17.10;99.90
11087;DHT22;5597;47.588;9.642;2022-08-01T04:12:12;17.10;99.90
11087;DHT22;5597;47.588;9.642;2022-08-01T04:14:38;17.10;99.90
11087;DHT22;5597;47.588;9.642;2022-08-01T04:17:04;17.10;99.90
11087;DHT22;5597;47.588;9.642;2022-08-01T04:19:29;17.10;99.90
11087;DHT22;5597;47.588;9.642;2022-08-01T04:21:55;17.10;99.90
11087;DHT22;5597;47.588;9.642;2022-08-01T04:24:22;17.10;99.90
11087;DHT22;5597;47.588;9.642;2022-08-01T04:26:51;17.10;99.90
11087;DHT22;5597;47.588;9.642;2022-08-01T04:29:19;17.10;99.90
11087;DHT22;5597;47.588;9.642;2022-08-01T04:31:47;17.10;99.90
11087;DHT22;5597;47.588;9.642;2022-08-01T04:34:16;17.10;99.90
11087;DHT22;5597;47.588;9.642;2022-08-01T04:36:42;17.10;99.90
11087;DHT22;5597;47.588;9.642;2022-08-01T04:39:10;17.20;99.90
11087;DHT22;5597;47.588;9.642;2022-08-01T04:41:37;17.30;99.90
11087;DHT22;5597;47.588;9.642;2022-08-01T04:44:04;17.30;99.90
11087;DHT22;5597;47.588;9.642;2022-08-01T04:46:29;17.40;99.90
11087;DHT22;5597;47.588;9.642;2022-08-01T04:48:57;17.40;99.90
11087;DHT22;5597;47.588;9.642;2022-08-01T04:51:23;17.40;99.90
11087;DHT22;5597;47.588;9.642;2022-08-01T04:53:49;17.40;99.90
11087;DHT22;5597;47.588;9.642;2022-08-01T04:56:17;17.50;99.90
11087;DHT22;5597;47.588;9.642;2022-08-01T04:58:43;17.60;99.90
11087;DHT22;5597;47.588;9.642;2022-08-01T05:01:09;17.60;99.90
11087;DHT22;5597;47.588;9.642;2022-08-01T05:03:35;17.60;99.90
11087;DHT22;5597;47.588;9.642;2022-08-01T05:06:01;17.70;99.90
11087;DHT22;5597;47.588;9.642;2022-08-01T05:08:27;17.80;99.90
11087;DHT22;5597;47.588;9.642;2022-08-01T05:10:52;17.80;99.90
11087;DHT22;5597;47.588;9.642;2022-08-01T05:13:19;17.90;99.90
11087;DHT22;5597;47.588;9.642;2022-08-01T05:15:44;18.00;99.90
11087;DHT22;5597;47.588;9.642;2022-08-01T05:18:10;18.10;99.90
11087;DHT22;5597;47.588;9.642;2022-08-01T05:20:36;18.30;99.90
11087;DHT22;5597;47.588;9.642;2022-08-01T05:23:03;18.40;99.90
11087;DHT22;5597;47.588;9.642;2022-08-01T05:25:29;18.50;99.90
11087;DHT22;5597;47.588;9.642;2022-08-01T05:27:55;18.60;99.90
11087;DHT22;5597;47.588;9.642;2022-08-01T05:30:20;18.80;99.90
11087;DHT22;5597;47.588;9.642;2022-08-01T05:32:46;18.80;99.90
11087;DHT22;5597;47.588;9.642;2022-08-01T05:35:11;19.00;99.90
11087;DHT22;5597;47.588;9.642;2022-08-01T05:37:37;19.10;99.90
11087;DHT22;5597;47.588;9.642;2022-08-01T05:40:03;19.30;99.90
11087;DHT22;5597;47.588;9.642;2022-08-01T05:42:30;19.40;99.90
11087;DHT22;5597;47.588;9.642;2022-08-01T05:44:55;19.50;99.90
11087;DHT22;5597;47.588;9.642;2022-08-01T05:47:21;19.60;99.90
11087;DHT22;5597;47.588;9.642;2022-08-01T05:49:46;19.80;99.90
11087;DHT22;5597;47.588;9.642;2022-08-01T05:52:12;19.90;99.90
11087;DHT22;5597;47.588;9.642;2022-08-01T05:54:38;20.10;99.90
11087;DHT22;5597;47.588;9.642;2022-08-01T05:57:03;20.30;99.90
11087;DHT22;5597;47.588;9.642;2022-08-01T05:59:29;20.50;99.90
11087;DHT22;5597;47.588;9.642;2022-08-01T06:01:55;20.70;99.90
11087;DHT22;5597;47.588;9.642;2022-08-01T06:04:21;20.80;99.90
11087;DHT22;5597;47.588;9.642;2022-08-01T06:06:47;21.00;99.90
11087;DHT22;5597;47.588;9.642;2022-08-01T06:09:12;21.20;99.90
11087;DHT22;5597;47.588;9.642;2022-08-01T06:11:38;21.30;99.90
11087;DHT22;5597;47.588;9.642;2022-08-01T06:14:04;21.50;99.90
11087;DHT22;5597;47.588;9.642;2022-08-01T06:16:29;21.70;99.90
11087;DHT22;5597;47.588;9.642;2022-08-01T06:18:55;21.80;99.90
11087;DHT22;5597;47.588;9.642;2022-08-01T06:21:20;22.00;99.90
11087;DHT22;5597;47.588;9.642;2022-08-01T06:23:46;22.10;99.90
11087;DHT22;5597;47.588;9.642;2022-08-01T06:26:12;22.30;99.90
11087;DHT22;5597;47.588;9.642;2022-08-01T06:28:38;22.40;99.90
11087;DHT22;5597;47.588;9.642;2022-08-01T06:31:04;22.60;99.90
11087;DHT22;5597;47.588;9.642;2022-08-01T06:33:29;22.70;99.90
11087;DHT22;5597;47.588;9.642;2022-08-01T06:35:55;22.90;99.90
11087;DHT22;5597;47.588;9.642;2022-08-01T06:38:21;23.10;99.90
11087;DHT22;5597;47.588;9.642;2022-08-01T06:40:47;23.20;99.90
11087;DHT22;5597;47.588;9.642;2022-08-01T06:43:12;23.30;99.90
11087;DHT22;5597;47.588;9.642;2022-08-01T06:45:41;23.40;99.90
11087;DHT22;5597;47.588;9.642;2022-08-01T06:48:07;23.50;99.90
11087;DHT22;5597;47.588;9.642;2022-08-01T06:50:33;23.60;99.90
11087;DHT22;5597;47.588;9.642;2022-08-01T06:53:01;23.70;99.90
11087;DHT22;5597;47.588;9.642;2022-08-01T06:55:26;23.90;99.90
11087;DHT22;5597;47.588;9.642;2022-08-01T06:57:52;23.90;99.90
11087;DHT22;5597;47.588;9.642;2022-08-01T07:00:23;24.00;99.90
11087;DHT22;5597;47.588;9.642;2022-08-01T07:02:50;24.10;99.90
11087;DHT22;5597;47.588;9.642;2022-08-01T07:05:15;24.20;99.90
11087;DHT22;5597;47.588;9.642;2022-08-01T07:07:41;24.20;99.90
11087;DHT22;5597;47.588;9.642;2022-08-01T07:10:07;24.30;99.90
11087;DHT22;5597;47.588;9.642;2022-08-01T07:12:34;24.30;99.90
11087;DHT22;5597;47.588;9.642;2022-08-01T07:15:03;24.40;99.90
11087;DHT22;5597;47.588;9.642;2022-08-01T07:17:29;24.50;99.90
11087;DHT22;5597;47.588;9.642;2022-08-01T07:19:54;24.50;99.90
11087;DHT22;5597;47.588;9.642;2022-08-01T07:22:20;24.60;99.90
11087;DHT22;5597;47.588;9.642;2022-08-01T07:24:46;24.60;99.90
11087;DHT22;5597;47.588;9.642;2022-08-01T07:27:12;24.50;99.90
11087;DHT22;5597;47.588;9.642;2022-08-01T07:29:38;24.50;99.90
11087;DHT22;5597;47.588;9.642;2022-08-01T07:32:04;24.50;99.90
11087;DHT22;5597;47.588;9.642;2022-08-01T07:34:29;24.50;99.90
11087;DHT22;5597;47.588;9.642;2022-08-01T07:36:55;24.60;99.90
11087;DHT22;5597;47.588;9.642;2022-08-01T07:39:21;24.70;99.90
11087;DHT22;5597;47.588;9.642;2022-08-01T07:41:46;24.80;99.90
11087;DHT22;5597;47.588;9.642;2022-08-01T07:44:12;24.80;99.90
11087;DHT22;5597;47.588;9.642;2022-08-01T07:46:38;24.90;99.90
11087;DHT22;5597;47.588;9.642;2022-08-01T07:49:03;25.00;99.90
11087;DHT22;5597;47.588;9.642;2022-08-01T07:51:29;25.10;99.90
11087;DHT22;5597;47.588;9.642;2022-08-01T07:53:55;25.10;99.90
11087;DHT22;5597;47.588;9.642;2022-08-01T07:56:20;25.30;99.90
11087;DHT22;5597;47.588;9.642;2022-08-01T07:58:49;25.30;99.90
11087;DHT22;5597;47.588;9.642;2022-08-01T08:01:15;25.40;99.90
11087;DHT22;5597;47.588;9.642;2022-08-01T08:03:40;25.50;99.90
11087;DHT22;5597;47.588;9.642;2022-08-01T08:06:06;25.60;99.90
11087;DHT22;5597;47.588;9.642;2022-08-01T08:08:32;25.60;99.90
11087;DHT22;5597;47.588;9.642;2022-08-01T08:11:00;25.70;99.90
11087;DHT22;5597;47.588;9.642;2022-08-01T08:13:25;25.80;99.90
11087;DHT22;5597;47.588;9.642;2022-08-01T08:15:51;25.90;99.90
11087;DHT22;5597;47.588;9.642;2022-08-01T08:18:16;26.00;99.90
11087;DHT22;5597;47.588;9.642;2022-08-01T08:20:42;26.20;99.90
11087;DHT22;5597;47.588;9.642;2022-08-01T08:23:08;26.20;99.90
11087;DHT22;5597;47.588;9.642;2022-08-01T08:25:52;26.20;99.90
11087;DHT22;5597;47.588;9.642;2022-08-01T08:28:18;26.30;99.90
11087;DHT22;5597;47.588;9.642;2022-08-01T08:30:43;26.40;99.90
11087;DHT22;5597;47.588;9.642;2022-08-01T08:33:09;26.50;99.90
11087;DHT22;5597;47.588;9.642;2022-08-01T08:35:34;26.50;99.90
11087;DHT22;5597;47.588;9.642;2022-08-01T08:38:00;26.30;99.90
11087;DHT22;5597;47.588;9.642;2022-08-01T08:40:29;26.20;99.90
11087;DHT22;5597;47.588;9.642;2022-08-01T08:42:58;26.30;99.90
11087;DHT22;5597;47.588;9.642;2022-08-01T08:45:25;26.50;99.90
11087;DHT22;5597;47.588;9.642;2022-08-01T08:47:52;26.60;99.90
11087;DHT22;5597;47.588;9.642;2022-08-01T08:50:18;26.60;99.90
11087;DHT22;5597;47.588;9.642;2022-08-01T08:52:45;26.70;99.90
11087;DHT22;5597;47.588;9.642;2022-08-01T08:55:11;26.70;99.90
11087;DHT22;5597;47.588;9.642;2022-08-01T08:57:40;26.80;99.90
11087;DHT22;5597;47.588;9.642;2022-08-01T09:00:08;26.90;99.90
11087;DHT22;5597;47.588;9.642;2022-08-01T09:02:35;26.90;99.90
11087;DHT22;5597;47.588;9.642;2022-08-01T09:05:01;27.00;99.90
11087;DHT22;5597;47.588;9.642;2022-08-01T09:07:30;27.20;99.90
11087;DHT22;5597;47.588;9.642;2022-08-01T09:09:55;27.20;99.90
11087;DHT22;5597;47.588;9.642;2022-08-01T09:12:21;27.20;99.90
11087;DHT22;5597;47.588;9.642;2022-08-01T09:14:47;27.30;99.90
11087;DHT22;5597;47.588;9.642;2022-08-01T09:17:15;27.30;99.90
11087;DHT22;5597;47.588;9.642;2022-08-01T09:19:52;27.30;99.90
11087;DHT22;5597;47.588;9.642;2022-08-01T09:22:20;27.40;99.90
11087;DHT22;5597;47.588;9.642;2022-08-01T09:25:04;27.50;99.90
11087;DHT22;5597;47.588;9.642;2022-08-01T09:27:30;27.70;99.90
11087;DHT22;5597;47.588;9.642;2022-08-01T09:30:16;27.90;99.90
11087;DHT22;5597;47.588;9.642;2022-08-01T09:32:59;28.10;99.90
11087;DHT22;5597;47.588;9.642;2022-08-01T09:35:30;28.30;99.90
11087;DHT22;5597;47.588;9.642;2022-08-01T09:38:22;28.20;99.90
11087;DHT22;5597;47.588;9.642;2022-08-01T09:40:59;28.30;99.90
11087;DHT22;5597;47.588;9.642;2022-08-01T09:43:27;28.40;99.90
11087;DHT22;5597;47.588;9.642;2022-08-01T09:45:54;28.50;99.90
11087;DHT22;5597;47.588;9.642;2022-08-01T09:48:20;28.70;99.90
11087;DHT22;5597;47.588;9.642;2022-08-01T09:50:48;28.90;99.90
11087;DHT22;5597;47.588;9.642;2022-08-01T09:53:15;29.00;99.90
11087;DHT22;5597;47.588;9.642;2022-08-01T09:55:42;29.10;99.90
11087;DHT22;5597;47.588;9.642;2022-08-01T09:58:08;29.30;99.90
11087;DHT22;5597;47.588;9.642;2022-08-01T10:00:35;29.40;99.90
11087;DHT22;5597;47.588;9.642;2022-08-01T10:03:23;29.60;99.90
11087;DHT22;5597;47.588;9.642;2022-08-01T10:05:49;29.70;99.90
11087;DHT22;5597;47.588;9.642;2022-08-01T10:08:15;29.70;99.90
11087;DHT22;5597;47.588;9.642;2022-08-01T10:10:42;29.70;99.10
11087;DHT22;5597;47.588;9.642;2022-08-01T10:13:09;29.60;98.50
11087;DHT22;5597;47.588;9.642;2022-08-01T10:15:35;29.60;97.30
11087;DHT22;5597;47.588;9.642;2022-08-01T10:18:02;29.70;97.40
11087;DHT22;5597;47.588;9.642;2022-08-01T10:20:31;29.70;97.10
11087;DHT22;5597;47.588;9.642;2022-08-01T10:23:03;29.90;97.60
11087;DHT22;5597;47.588;9.642;2022-08-01T10:25:35;30.00;94.40
11087;DHT22;5597;47.588;9.642;2022-08-01T10:28:06;29.90;93.10
11087;DHT22;5597;47.588;9.642;2022-08-01T10:30:35;29.70;94.50
11087;DHT22;5597;47.588;9.642;2022-08-01T10:33:01;29.60;94.50
11087;DHT22;5597;47.588;9.642;2022-08-01T10:35:27;29.50;94.50
11087;DHT22;5597;47.588;9.642;2022-08-01T10:37:53;29.50;95.50
11087;DHT22;5597;47.588;9.642;2022-08-01T10:40:23;29.60;95.60
11087;DHT22;5597;47.588;9.642;2022-08-01T10:42:49;29.80;94.40
11087;DHT22;5597;47.588;9.642;2022-08-01T10:45:15;29.90;93.90
11087;DHT22;5597;47.588;9.642;2022-08-01T10:47:48;30.10;94.40
11087;DHT22;5597;47.588;9.642;2022-08-01T10:50:35;30.10;93.00
11087;DHT22;5597;47.588;9.642;2022-08-01T10:53:22;30.10;93.50
11087;DHT22;5597;47.588;9.642;2022-08-01T10:58:35;29.80;93.20
11087;DHT22;5597;47.588;9.642;2022-08-01T11:01:24;29.90;94.40
11087;DHT22;5597;47.588;9.642;2022-08-01T11:04:07;29.90;91.70
11087;DHT22;5597;47.588;9.642;2022-08-01T11:09:05;29.80;91.70
11087;DHT22;5597;47.588;9.642;2022-08-01T11:11:31;29.80;93.00
11087;DHT22;5597;47.588;9.642;2022-08-01T11:16:39;29.80;89.60
11087;DHT22;5597;47.588;9.642;2022-08-01T11:19:06;30.00;91.30
11087;DHT22;5597;47.588;9.642;2022-08-01T11:27:20;30.50;89.40
11087;DHT22;5597;47.588;9.642;2022-08-01T11:32:52;30.70;90.10
11087;DHT22;5597;47.588;9.642;2022-08-01T11:35:18;31.00;87.40
11087;DHT22;5597;47.588;9.642;2022-08-01T11:37:47;31.30;87.40
11087;DHT22;5597;47.588;9.642;2022-08-01T11:40:29;31.60;89.70
11087;DHT22;5597;47.588;9.642;2022-08-01T11:45:51;32.30;87.50
11087;DHT22;5597;47.588;9.642;2022-08-01T11:48:19;32.50;84.10
11087;DHT22;5597;47.588;9.642;2022-08-01T11:50:46;32.50;80.30
11087;DHT22;5597;47.588;9.642;2022-08-01T11:53:11;32.30;80.40
11087;DHT22;5597;47.588;9.642;2022-08-01T11:55:46;32.10;78.70
11087;DHT22;5597;47.588;9.642;2022-08-01T11:58:12;32.00;78.10
11087;DHT22;5597;47.588;9.642;2022-08-01T12:00:38;31.90;78.80
11087;DHT22;5597;47.588;9.642;2022-08-01T12:03:06;31.90;79.30
11087;DHT22;5597;47.588;9.642;2022-08-01T12:05:34;32.00;79.50
11087;DHT22;5597;47.588;9.642;2022-08-01T12:08:02;32.30;81.20
11087;DHT22;5597;47.588;9.642;2022-08-01T12:10:32;32.70;83.00
11087;DHT22;5597;47.588;9.642;2022-08-01T12:13:03;33.20;80.90
11087;DHT22;5597;47.588;9.642;2022-08-01T12:15:34;33.50;78.70
11087;DHT22;5597;47.588;9.642;2022-08-01T12:18:02;33.90;78.50
11087;DHT22;5597;47.588;9.642;2022-08-01T12:20:49;34.20;76.90
11087;DHT22;5597;47.588;9.642;2022-08-01T12:23:15;34.30;72.40
11087;DHT22;5597;47.588;9.642;2022-08-01T12:25:41;34.40;70.90
11087;DHT22;5597;47.588;9.642;2022-08-01T12:28:11;34.50;71.70
11087;DHT22;5597;47.588;9.642;2022-08-01T12:30:39;34.50;71.80
11087;DHT22;5597;47.588;9.642;2022-08-01T12:33:07;34.60;71.30
11087;DHT22;5597;47.588;9.642;2022-08-01T12:35:36;34.70;70.50
11087;DHT22;5597;47.588;9.642;2022-08-01T12:38:04;35.00;73.30
11087;DHT22;5597;47.588;9.642;2022-08-01T12:40:34;35.30;72.60
11087;DHT22;5597;47.588;9.642;2022-08-01T12:43:03;35.50;72.70
11087;DHT22;5597;47.588;9.642;2022-08-01T12:45:40;35.80;67.90
11087;DHT22;5597;47.588;9.642;2022-08-01T12:48:12;35.50;64.80
11087;DHT22;5597;47.588;9.642;2022-08-01T12:50:39;35.40;69.30
11087;DHT22;5597;47.588;9.642;2022-08-01T12:53:07;35.40;69.00
11087;DHT22;5597;47.588;9.642;2022-08-01T12:55:33;35.60;68.60
11087;DHT22;5597;47.588;9.642;2022-08-01T12:58:10;35.80;66.40
11087;DHT22;5597;47.588;9.642;2022-08-01T13:00:37;36.10;70.40
11087;DHT22;5597;47.588;9.642;2022-08-01T13:03:07;36.40;66.20
11087;DHT22;5597;47.588;9.642;2022-08-01T13:05:48;36.40;63.90
11087;DHT22;5597;47.588;9.642;2022-08-01T13:08:33;36.40;62.00
11087;DHT22;5597;47.588;9.642;2022-08-01T13:11:06;36.40;62.80
11087;DHT22;5597;47.588;9.642;2022-08-01T13:13:48;36.40;64.20
11087;DHT22;5597;47.588;9.642;2022-08-01T13:16:15;36.50;60.40
11087;DHT22;5597;47.588;9.642;2022-08-01T13:18:48;36.30;62.00
11087;DHT22;5597;47.588;9.642;2022-08-01T13:21:17;35.80;60.00
11087;DHT22;5597;47.588;9.642;2022-08-01T13:24:02;35.50;62.10
11087;DHT22;5597;47.588;9.642;2022-08-01T13:29:08;34.70;61.50
11087;DHT22;5597;47.588;9.642;2022-08-01T13:31:37;34.40;62.50
11087;DHT22;5597;47.588;9.642;2022-08-01T13:34:03;34.30;66.00
11087;DHT22;5597;47.588;9.642;2022-08-01T13:36:29;34.40;67.80
11087;DHT22;5597;47.588;9.642;2022-08-01T13:38:59;34.90;67.50
11087;DHT22;5597;47.588;9.642;2022-08-01T13:41:45;35.40;67.10
11087;DHT22;5597;47.588;9.642;2022-08-01T13:44:11;35.70;64.00
11087;DHT22;5597;47.588;9.642;2022-08-01T13:46:37;35.70;60.90
11087;DHT22;5597;47.588;9.642;2022-08-01T13:49:04;35.40;61.80
11087;DHT22;5597;47.588;9.642;2022-08-01T13:51:30;35.30;62.00
11087;DHT22;5597;47.588;9.642;2022-08-01T13:53:56;35.20;61.40
11087;DHT22;5597;47.588;9.642;2022-08-01T13:56:23;35.00;62.90
11087;DHT22;5597;47.588;9.642;2022-08-01T13:58:48;34.70;62.80
11087;DHT22;5597;47.588;9.642;2022-08-01T14:01:14;34.60;62.20
11087;DHT22;5597;47.588;9.642;2022-08-01T14:03:40;34.50;63.00
11087;DHT22;5597;47.588;9.642;2022-08-01T14:06:06;34.40;63.00
11087;DHT22;5597;47.588;9.642;2022-08-01T14:08:31;34.40;62.50
11087;DHT22;5597;47.588;9.642;2022-08-01T14:10:57;34.50;63.00
11087;DHT22;5597;47.588;9.642;2022-08-01T14:13:26;34.70;65.10
11087;DHT22;5597;47.588;9.642;2022-08-01T14:15:52;35.00;62.70
11087;DHT22;5597;47.588;9.642;2022-08-01T14:18:18;35.10;59.90
11087;DHT22;5597;47.588;9.642;2022-08-01T14:20:44;35.20;61.80
11087;DHT22;5597;47.588;9.642;2022-08-01T14:23:10;35.30;59.90
11087;DHT22;5597;47.588;9.642;2022-08-01T14:25:39;35.20;60.00
11087;DHT22;5597;47.588;9.642;2022-08-01T14:28:05;35.10;61.30
11087;DHT22;5597;47.588;9.642;2022-08-01T14:30:32;35.30;62.60
11087;DHT22;5597;47.588;9.642;2022-08-01T14:32:58;35.40;63.10
11087;DHT22;5597;47.588;9.642;2022-08-01T14:35:24;35.80;65.80
11087;DHT22;5597;47.588;9.642;2022-08-01T14:37:50;36.20;64.50
11087;DHT22;5597;47.588;9.642;2022-08-01T14:40:16;36.50;60.50
11087;DHT22;5597;47.588;9.642;2022-08-01T14:42:42;36.70;59.80
11087;DHT22;5597;47.588;9.642;2022-08-01T14:45:10;36.50;58.00
11087;DHT22;5597;47.588;9.642;2022-08-01T14:47:37;36.40;59.00
11087;DHT22;5597;47.588;9.642;2022-08-01T14:50:11;36.30;58.10
11087;DHT22;5597;47.588;9.642;2022-08-01T14:52:38;36.10;57.20
11087;DHT22;5597;47.588;9.642;2022-08-01T14:55:06;35.90;58.40
11087;DHT22;5597;47.588;9.642;2022-08-01T14:57:32;35.60;58.80
11087;DHT22;5597;47.588;9.642;2022-08-01T14:59:57;35.40;60.00
11087;DHT22;5597;47.588;9.642;2022-08-01T15:02:23;35.50;62.50
11087;DHT22;5597;47.588;9.642;2022-08-01T15:04:49;35.80;60.90
11087;DHT22;5597;47.588;9.642;2022-08-01T15:07:16;36.00;59.40
11087;DHT22;5597;47.588;9.642;2022-08-01T15:09:42;36.30;58.20
11087;DHT22;5597;47.588;9.642;2022-08-01T15:12:09;36.30;58.60
11087;DHT22;5597;47.588;9.642;2022-08-01T15:14:34;36.50;61.60
11087;DHT22;5597;47.588;9.642;2022-08-01T15:17:23;36.80;59.00
11087;DHT22;5597;47.588;9.642;2022-08-01T15:19:51;36.80;56.70
11087;DHT22;5597;47.588;9.642;2022-08-01T15:22:18;36.70;54.90
11087;DHT22;5597;47.588;9.642;2022-08-01T15:24:44;36.30;55.20
11087;DHT22;5597;47.588;9.642;2022-08-01T15:27:10;35.90;55.80
11087;DHT22;5597;47.588;9.642;2022-08-01T15:29:36;35.50;57.00
11087;DHT22;5597;47.588;9.642;2022-08-01T15:32:03;35.30;57.70
11087;DHT22;5597;47.588;9.642;2022-08-01T15:34:30;35.10;58.70
11087;DHT22;5597;47.588;9.642;2022-08-01T15:36:55;35.20;58.40
11087;DHT22;5597;47.588;9.642;2022-08-01T15:39:21;35.10;58.40
11087;DHT22;5597;47.588;9.642;2022-08-01T15:41:47;35.30;59.00
11087;DHT22;5597;47.588;9.642;2022-08-01T15:44:12;35.40;58.30
11087;DHT22;5597;47.588;9.642;2022-08-01T15:46:39;35.50;58.00
11087;DHT22;5597;47.588;9.642;2022-08-01T15:49:05;35.60;58.30
11087;DHT22;5597;47.588;9.642;2022-08-01T15:51:32;35.70;58.90
11087;DHT22;5597;47.588;9.642;2022-08-01T15:53:58;35.80;58.60
11087;DHT22;5597;47.588;9.642;2022-08-01T15:56:29;35.80;57.80
11087;DHT22;5597;47.588;9.642;2022-08-01T15:58:55;35.60;56.80
11087;DHT22;5597;47.588;9.642;2022-08-01T16:01:21;35.30;59.90
11087;DHT22;5597;47.588;9.642;2022-08-01T16:03:46;35.10;60.00
11087;DHT22;5597;47.588;9.642;2022-08-01T16:06:12;34.70;58.40
11087;DHT22;5597;47.588;9.642;2022-08-01T16:08:38;34.50;58.40
11087;DHT22;5597;47.588;9.642;2022-08-01T16:11:03;34.20;58.90
11087;DHT22;5597;47.588;9.642;2022-08-01T16:13:29;33.90;60.30
11087;DHT22;5597;47.588;9.642;2022-08-01T16:15:54;33.80;63.70
11087;DHT22;5597;47.588;9.642;2022-08-01T16:18:20;33.80;66.10
11087;DHT22;5597;47.588;9.642;2022-08-01T16:20:46;33.90;67.80
11087;DHT22;5597;47.588;9.642;2022-08-01T16:23:13;34.10;68.60
11087;DHT22;5597;47.588;9.642;2022-08-01T16:25:39;34.30;69.30
11087;DHT22;5597;47.588;9.642;2022-08-01T16:28:04;34.40;68.70
11087;DHT22;5597;47.588;9.642;2022-08-01T16:30:30;34.60;69.30